createdAt,value
2022-07-28T00:02:26.008Z,19.30
2022-07-28T00:04:52.958Z,19.20
2022-07-28T00:07:20.403Z,19.20
2022-07-28T00:09:47.401Z,19.20
2022-07-28T00:12:14.260Z,19.20
2022-07-28T00:14:41.117Z,19.10
2022-07-28T00:17:07.917Z,19.00
2022-07-28T00:19:34.915Z,19.10
2022-07-28T00:22:03.013Z,19.10
2022-07-28T00:24:31.546Z,19.10
2022-07-28T00:26:58.482Z,19.00
2022-07-28T00:29:25.442Z,18.90
2022-07-28T00:32:12.208Z,19.00
2022-07-28T00:34:39.196Z,18.90
2022-07-28T00:37:08.639Z,18.90
2022-07-28T00:39:40.279Z,18.90
2022-07-28T00:42:07.268Z,18.90
2022-07-28T00:44:34.103Z,18.80
2022-07-28T00:47:01.081Z,18.70
2022-07-28T00:49:27.986Z,18.70
2022-07-28T00:51:54.824Z,18.70
2022-07-28T00:54:22.743Z,18.60
2022-07-28T00:56:49.566Z,18.60
2022-07-28T00:59:16.552Z,18.60
2022-07-28T01:01:43.446Z,18.50
2022-07-28T01:04:10.389Z,18.50
2022-07-28T01:07:15.101Z,18.50
2022-07-28T01:10:08.677Z,18.50
2022-07-28T01:12:49.306Z,18.40
2022-07-28T01:15:29.723Z,18.40
2022-07-28T01:18:20.737Z,18.40
2022-07-28T01:20:52.752Z,18.30
2022-07-28T01:24:07.169Z,18.30
2022-07-28T01:26:45.948Z,18.30
2022-07-28T01:29:50.459Z,18.20
2022-07-28T01:32:23.828Z,18.20
2022-07-28T01:34:55.335Z,18.10
2022-07-28T01:37:29.104Z,18.20
2022-07-28T01:40:01.650Z,18.10
2022-07-28T01:42:37.150Z,18.10
2022-07-28T01:45:06.750Z,18.10
2022-07-28T01:47:35.678Z,18.10
2022-07-28T01:50:08.414Z,18.10
2022-07-28T01:52:37.811Z,18.00
2022-07-28T01:55:07.212Z,18.00
2022-07-28T01:57:37.493Z,18.00
2022-07-28T02:00:10.790Z,17.80
2022-07-28T02:02:39.525Z,17.90
2022-07-28T02:05:09.854Z,17.90
2022-07-28T02:07:41.594Z,17.90
2022-07-28T02:10:14.902Z,17.80
2022-07-28T02:12:44.810Z,17.80
2022-07-28T02:15:14.546Z,17.80
2022-07-28T02:17:45.352Z,17.80
2022-07-28T02:20:14.864Z,17.70
2022-07-28T02:22:45.698Z,17.70
2022-07-28T02:25:19.533Z,17.60
2022-07-28T02:27:56.749Z,17.60
2022-07-28T02:30:44.246Z,17.60
2022-07-28T02:33:57.778Z,17.60
2022-07-28T02:36:20.117Z,17.50
2022-07-28T02:38:50.893Z,17.50
2022-07-28T02:41:31.311Z,17.50
2022-07-28T02:44:11.974Z,17.40
2022-07-28T02:46:46.585Z,17.40
2022-07-28T02:49:30.054Z,17.30
2022-07-28T02:52:00.841Z,17.30
2022-07-28T02:54:30.963Z,17.30
2022-07-28T02:57:00.497Z,17.20
2022-07-28T02:59:28.949Z,17.30
2022-07-28T03:01:59.725Z,17.20
2022-07-28T03:04:47.184Z,17.20
2022-07-28T03:07:15.041Z,17.20
2022-07-28T03:09:45.759Z,17.20
2022-07-28T03:12:13.704Z,17.20
2022-07-28T03:14:41.723Z,17.20
2022-07-28T03:17:09.255Z,17.20
2022-07-28T03:19:36.680Z,17.00
2022-07-28T03:22:04.187Z,17.10
2022-07-28T03:24:36.668Z,17.20
2022-07-28T03:27:41.570Z,17.10
2022-07-28T03:30:14.267Z,17.20
2022-07-28T03:32:48.163Z,17.10
2022-07-28T03:35:15.124Z,17.10
2022-07-28T03:37:58.277Z,17.10
2022-07-28T03:40:29.680Z,17.10
2022-07-28T03:42:59.598Z,17.10
2022-07-28T03:45:27.088Z,17.10
2022-07-28T03:47:58.706Z,17.10
2022-07-28T03:50:28.911Z,17.10
2022-07-28T03:52:57.978Z,17.10
2022-07-28T03:55:26.552Z,17.10
2022-07-28T03:57:53.661Z,17.10
2022-07-28T04:00:21.218Z,17.10
2022-07-28T04:02:48.177Z,17.10
2022-07-28T04:05:19.190Z,17.10
2022-07-28T04:07:46.342Z,17.10
2022-07-28T04:10:16.258Z,17.10
2022-07-28T04:12:55.521Z,17.10
2022-07-28T04:15:23.932Z,17.10
2022-07-28T04:17:52.814Z,17.10
2022-07-28T04:20:22.391Z,17.20
2022-07-28T04:22:50.840Z,17.10
2022-07-28T04:25:21.077Z,17.20
2022-07-28T04:27:48.622Z,17.10
2022-07-28T04:30:18.573Z,17.20
2022-07-28T04:32:49.981Z,17.20
2022-07-28T04:35:18.317Z,17.30
2022-07-28T04:37:48.550Z,17.30
2022-07-28T04:40:15.898Z,17.30
2022-07-28T04:42:43.702Z,17.40
2022-07-28T04:45:11.919Z,17.40
2022-07-28T04:47:40.061Z,17.60
2022-07-28T04:50:09.924Z,17.50
2022-07-28T04:52:38.371Z,17.60
2022-07-28T04:55:06.826Z,17.60
2022-07-28T04:57:34.064Z,17.70
2022-07-28T05:00:01.833Z,17.70
2022-07-28T05:02:28.822Z,17.80
2022-07-28T05:04:55.649Z,17.80
2022-07-28T05:07:22.493Z,17.90
2022-07-28T05:09:50.414Z,17.90
2022-07-28T05:12:17.161Z,18.00
2022-07-28T05:14:44.020Z,18.00
2022-07-28T05:17:10.989Z,18.10
2022-07-28T05:19:37.990Z,18.20
2022-07-28T05:22:04.890Z,18.20
2022-07-28T05:24:32.373Z,18.30
2022-07-28T05:26:59.222Z,18.50
2022-07-28T05:29:26.140Z,18.60
2022-07-28T05:32:15.546Z,18.80
2022-07-28T05:34:45.497Z,19.10
2022-07-28T05:37:12.410Z,19.30
2022-07-28T05:39:39.320Z,19.60
2022-07-28T05:42:06.538Z,19.90
2022-07-28T05:44:37.807Z,20.10
2022-07-28T05:47:05.756Z,20.30
2022-07-28T05:49:32.819Z,20.60
2022-07-28T05:51:59.881Z,20.80
2022-07-28T05:54:26.802Z,21.00
2022-07-28T05:56:53.629Z,21.20
2022-07-28T05:59:20.535Z,21.40
2022-07-28T06:01:47.733Z,21.60
2022-07-28T06:04:30.413Z,21.70
2022-07-28T06:06:57.625Z,21.80
2022-07-28T06:09:24.411Z,21.90
2022-07-28T06:11:51.151Z,22.00
2022-07-28T06:14:19.338Z,22.10
2022-07-28T06:16:51.251Z,22.20
2022-07-28T06:19:19.499Z,22.20
2022-07-28T06:21:47.592Z,22.30
2022-07-28T06:24:15.149Z,22.40
2022-07-28T06:26:44.948Z,22.40
2022-07-28T06:29:12.621Z,22.30
2022-07-28T06:31:40.002Z,22.40
2022-07-28T06:34:07.107Z,22.40
2022-07-28T06:36:34.049Z,22.30
2022-07-28T06:39:01.090Z,22.40
2022-07-28T06:41:28.726Z,22.40
2022-07-28T06:43:55.523Z,22.40
2022-07-28T06:46:22.965Z,22.40
2022-07-28T06:48:50.085Z,22.40
2022-07-28T06:51:19.243Z,22.50
2022-07-28T06:53:48.624Z,22.50
2022-07-28T06:56:16.174Z,22.40
2022-07-28T06:58:46.837Z,22.40
2022-07-28T07:01:15.559Z,22.40
2022-07-28T07:03:43.471Z,22.40
2022-07-28T07:06:11.021Z,22.40
2022-07-28T07:08:38.574Z,22.40
2022-07-28T07:11:05.522Z,22.40
2022-07-28T07:13:33.065Z,22.40
2022-07-28T07:16:01.227Z,22.40
2022-07-28T07:18:28.112Z,22.40
2022-07-28T07:20:57.758Z,22.40
2022-07-28T07:23:24.574Z,22.40
2022-07-28T07:25:51.371Z,22.50
2022-07-28T07:28:18.253Z,22.50
2022-07-28T07:30:45.248Z,22.50
2022-07-28T07:33:12.045Z,22.50
2022-07-28T07:35:38.903Z,22.50
2022-07-28T07:38:06.217Z,22.50
2022-07-28T07:40:33.784Z,22.50
2022-07-28T07:43:00.645Z,22.50
2022-07-28T07:45:27.591Z,22.50
2022-07-28T07:47:54.392Z,22.50
2022-07-28T07:50:21.653Z,22.50
2022-07-28T07:52:50.112Z,22.50
2022-07-28T07:55:17.670Z,22.50
2022-07-28T07:57:45.202Z,22.50
2022-07-28T08:00:28.065Z,22.50
2022-07-28T08:02:57.402Z,22.50
2022-07-28T08:05:34.988Z,22.60
2022-07-28T08:08:05.147Z,22.70
2022-07-28T08:10:33.515Z,22.70
2022-07-28T08:13:00.598Z,22.70
2022-07-28T08:15:27.567Z,22.70
2022-07-28T08:17:55.497Z,22.70
2022-07-28T08:20:22.779Z,22.80
2022-07-28T08:22:56.391Z,22.80
2022-07-28T08:25:24.232Z,22.90
2022-07-28T08:27:51.328Z,23.00
2022-07-28T08:30:22.384Z,23.10
2022-07-28T08:32:56.359Z,23.30
2022-07-28T08:35:35.047Z,23.30
2022-07-28T08:38:05.126Z,23.40
2022-07-28T08:40:32.675Z,23.50
2022-07-28T08:43:11.415Z,23.60
2022-07-28T08:45:41.037Z,23.70
2022-07-28T08:48:11.671Z,23.80
2022-07-28T08:50:39.752Z,23.80
2022-07-28T08:53:08.191Z,23.70
2022-07-28T08:55:37.297Z,23.80
2022-07-28T08:58:04.666Z,23.80
2022-07-28T09:00:31.797Z,23.90
2022-07-28T09:02:59.972Z,24.00
2022-07-28T09:05:27.746Z,24.00
2022-07-28T09:07:55.928Z,24.10
2022-07-28T09:10:23.831Z,24.20
2022-07-28T09:12:51.138Z,24.30
2022-07-28T09:15:18.092Z,24.30
2022-07-28T09:17:44.975Z,24.30
2022-07-28T09:20:13.371Z,24.40
2022-07-28T09:23:42.047Z,24.40
2022-07-28T09:26:11.777Z,24.40
2022-07-28T09:28:58.179Z,24.50
2022-07-28T09:31:28.738Z,24.40
2022-07-28T09:34:04.465Z,24.40
2022-07-28T09:36:40.200Z,24.40
2022-07-28T09:39:07.594Z,24.40
2022-07-28T09:41:57.740Z,24.40
2022-07-28T09:44:27.676Z,24.50
2022-07-28T09:46:56.364Z,24.50
2022-07-28T09:49:43.046Z,24.50
2022-07-28T09:52:10.568Z,24.50
2022-07-28T09:54:40.743Z,24.50
2022-07-28T09:57:11.311Z,24.60
2022-07-28T09:59:50.790Z,24.50
2022-07-28T10:02:30.497Z,24.50
2022-07-28T10:05:02.431Z,24.60
2022-07-28T10:07:30.388Z,24.60
2022-07-28T10:10:03.133Z,24.60
2022-07-28T10:12:36.854Z,24.70
2022-07-28T10:15:37.247Z,24.80
2022-07-28T10:18:06.210Z,24.80
2022-07-28T10:20:35.108Z,24.80
2022-07-28T10:23:05.364Z,24.70
2022-07-28T10:25:35.481Z,24.70
2022-07-28T10:28:03.839Z,24.70
2022-07-28T10:30:37.691Z,24.70
2022-07-28T10:33:14.531Z,24.70
2022-07-28T10:35:54.418Z,24.70
2022-07-28T10:38:26.023Z,24.80
2022-07-28T10:40:56.783Z,24.80
2022-07-28T10:43:26.562Z,24.80
2022-07-28T10:46:14.200Z,24.90
2022-07-28T10:48:41.057Z,24.90
2022-07-28T10:51:11.471Z,25.10
2022-07-28T10:53:54.507Z,25.10
2022-07-28T10:56:45.475Z,25.20
2022-07-28T10:59:41.559Z,25.30
2022-07-28T11:02:08.597Z,25.40
2022-07-28T11:04:41.551Z,25.40
2022-07-28T11:07:15.181Z,25.40
2022-07-28T11:09:42.282Z,25.40
2022-07-28T11:12:12.289Z,25.40
2022-07-28T11:14:42.401Z,25.40
2022-07-28T11:17:11.287Z,25.40
2022-07-28T11:20:24.968Z,25.30
2022-07-28T11:22:33.682Z,25.30
2022-07-28T11:25:19.609Z,25.20
2022-07-28T11:27:51.919Z,25.10
2022-07-28T11:30:20.353Z,25.10
2022-07-28T11:32:55.912Z,25.20
2022-07-28T11:35:31.454Z,25.10
2022-07-28T11:38:01.065Z,25.10
2022-07-28T11:40:40.116Z,25.20
2022-07-28T11:43:36.552Z,25.20
2022-07-28T11:46:09.656Z,25.30
2022-07-28T11:48:45.037Z,25.30
2022-07-28T11:51:14.099Z,25.20
2022-07-28T11:53:49.901Z,25.20
2022-07-28T11:56:26.308Z,25.30
2022-07-28T11:59:05.190Z,25.30
2022-07-28T12:01:38.263Z,25.20
2022-07-28T12:04:13.559Z,25.20
2022-07-28T12:06:43.146Z,25.20
2022-07-28T12:09:13.236Z,25.20
2022-07-28T12:11:42.509Z,25.30
2022-07-28T12:14:13.822Z,25.20
2022-07-28T12:16:45.168Z,25.30
2022-07-28T12:19:16.143Z,25.30
2022-07-28T12:21:47.825Z,25.50
2022-07-28T12:24:18.733Z,25.60
2022-07-28T12:26:49.500Z,25.70
2022-07-28T12:29:17.651Z,25.80
2022-07-28T12:32:05.827Z,26.00
2022-07-28T12:34:35.141Z,26.10
2022-07-28T12:37:09.632Z,26.20
2022-07-28T12:39:42.640Z,26.20
2022-07-28T12:42:12.722Z,26.20
2022-07-28T12:44:40.691Z,26.30
2022-07-28T12:47:12.583Z,26.40
2022-07-28T12:49:43.739Z,26.40
2022-07-28T12:52:17.365Z,26.50
2022-07-28T12:54:54.422Z,26.60
2022-07-28T12:57:50.400Z,26.80
2022-07-28T13:00:24.800Z,26.90
2022-07-28T13:02:56.611Z,27.00
2022-07-28T13:05:55.694Z,27.20
2022-07-28T13:08:27.532Z,27.30
2022-07-28T13:10:58.967Z,27.40
2022-07-28T13:13:27.080Z,27.50
2022-07-28T13:16:20.893Z,27.60
2022-07-28T13:18:54.324Z,27.70
2022-07-28T13:21:58.120Z,27.90
2022-07-28T13:24:28.490Z,28.00
2022-07-28T13:26:56.704Z,28.10
2022-07-28T13:29:23.827Z,28.20
2022-07-28T13:31:51.038Z,28.20
2022-07-28T13:34:19.268Z,28.30
2022-07-28T13:36:46.229Z,28.30
2022-07-28T13:39:14.234Z,28.40
2022-07-28T13:41:56.502Z,28.40
2022-07-28T13:44:26.057Z,28.40
2022-07-28T13:46:53.238Z,28.50
2022-07-28T13:49:22.812Z,28.40
2022-07-28T13:51:51.132Z,28.30
2022-07-28T13:54:19.450Z,28.30
2022-07-28T13:56:48.975Z,28.10
2022-07-28T13:59:16.134Z,28.10
2022-07-28T14:01:43.366Z,28.00
2022-07-28T14:04:16.767Z,27.90
2022-07-28T14:06:45.745Z,27.90
2022-07-28T14:09:13.638Z,27.70
2022-07-28T14:11:49.870Z,27.70
2022-07-28T14:14:23.788Z,27.70
2022-07-28T14:16:55.681Z,27.70
2022-07-28T14:19:38.886Z,27.70
2022-07-28T14:22:12.523Z,27.60
2022-07-28T14:24:41.801Z,27.60
2022-07-28T14:27:10.284Z,27.60
2022-07-28T14:29:38.119Z,27.60
2022-07-28T14:32:05.707Z,27.50
2022-07-28T14:34:34.538Z,27.50
2022-07-28T14:37:03.391Z,27.40
2022-07-28T14:39:35.732Z,27.40
2022-07-28T14:42:02.560Z,27.40
2022-07-28T14:44:29.515Z,27.20
2022-07-28T14:46:56.545Z,27.40
2022-07-28T14:49:23.656Z,27.30
2022-07-28T14:51:51.123Z,27.30
2022-07-28T14:54:18.692Z,27.30
2022-07-28T14:56:45.813Z,27.20
2022-07-28T14:59:12.676Z,27.20
2022-07-28T15:01:40.233Z,27.10
2022-07-28T15:04:07.160Z,27.10
2022-07-28T15:06:34.052Z,27.00
2022-07-28T15:09:02.118Z,27.00
2022-07-28T15:11:29.118Z,26.90
2022-07-28T15:13:55.914Z,26.80
2022-07-28T15:16:22.794Z,26.70
2022-07-28T15:18:52.631Z,26.70
2022-07-28T15:21:19.744Z,26.60
2022-07-28T15:23:46.742Z,26.50
2022-07-28T15:26:14.017Z,26.50
2022-07-28T15:28:41.048Z,26.50
2022-07-28T15:31:08.779Z,26.40
2022-07-28T15:33:42.520Z,26.40
2022-07-28T15:36:16.609Z,26.40
2022-07-28T15:38:47.042Z,26.40
2022-07-28T15:41:15.557Z,26.40
2022-07-28T15:43:42.687Z,26.40
2022-07-28T15:46:12.914Z,26.50
2022-07-28T15:48:44.400Z,26.50
2022-07-28T15:51:11.798Z,26.50
2022-07-28T15:53:39.123Z,26.40
2022-07-28T15:56:06.243Z,26.40
2022-07-28T15:58:33.547Z,26.40
2022-07-28T16:01:01.654Z,26.40
2022-07-28T16:03:30.602Z,26.40
2022-07-28T16:05:58.823Z,26.40
2022-07-28T16:08:26.779Z,26.40
2022-07-28T16:10:54.288Z,26.40
2022-07-28T16:13:35.801Z,26.40
2022-07-28T16:16:09.685Z,26.40
2022-07-28T16:18:39.076Z,26.50
2022-07-28T16:21:07.567Z,26.50
2022-07-28T16:23:35.356Z,26.50
2022-07-28T16:26:03.825Z,26.50
2022-07-28T16:28:31.045Z,26.60
2022-07-28T16:30:58.010Z,26.60
2022-07-28T16:33:25.155Z,26.60
2022-07-28T16:35:52.348Z,26.70
2022-07-28T16:38:20.771Z,26.70
2022-07-28T16:40:47.584Z,26.70
2022-07-28T16:43:14.368Z,26.70
2022-07-28T16:45:41.461Z,26.80
2022-07-28T16:48:08.406Z,26.70
2022-07-28T16:50:35.366Z,26.70
2022-07-28T16:53:04.986Z,26.70
2022-07-28T16:55:31.987Z,26.70
2022-07-28T16:57:59.032Z,26.70
2022-07-28T17:00:26.850Z,26.60
2022-07-28T17:02:53.695Z,26.70
2022-07-28T17:05:20.659Z,26.70
2022-07-28T17:07:47.540Z,26.70
2022-07-28T17:10:21.288Z,26.70
2022-07-28T17:12:55.244Z,26.70
2022-07-28T17:15:23.398Z,26.80
2022-07-28T17:17:55.934Z,26.90
2022-07-28T17:20:24.338Z,26.80
2022-07-28T17:22:51.210Z,26.90
2022-07-28T17:28:06.222Z,27.10
2022-07-28T17:30:34.049Z,27.20
2022-07-28T17:33:08.058Z,27.30
2022-07-28T17:35:36.758Z,27.30
2022-07-28T17:38:08.291Z,27.40
2022-07-28T17:40:38.395Z,27.40
2022-07-28T17:43:05.856Z,27.40
2022-07-28T17:45:32.657Z,27.40
2022-07-28T17:47:59.543Z,27.40
2022-07-28T17:50:26.598Z,27.40
2022-07-28T17:52:53.489Z,27.30
2022-07-28T17:55:40.785Z,27.40
2022-07-28T17:58:28.811Z,27.30
2022-07-28T18:01:10.892Z,27.20
2022-07-28T18:03:58.661Z,27.20
2022-07-28T18:06:29.770Z,27.10
2022-07-28T18:08:57.876Z,27.00
2022-07-28T18:11:30.052Z,27.00
2022-07-28T18:14:03.973Z,26.90
2022-07-28T18:16:31.620Z,26.80
2022-07-28T18:18:58.642Z,26.70
2022-07-28T18:21:26.681Z,26.70
2022-07-28T18:23:54.845Z,26.50
2022-07-28T18:26:22.386Z,26.60
2022-07-28T18:28:49.507Z,26.50
2022-07-28T18:31:16.488Z,26.40
2022-07-28T18:33:43.640Z,26.40
2022-07-28T18:36:10.548Z,26.30
2022-07-28T18:38:37.364Z,26.20
2022-07-28T18:41:04.330Z,26.20
2022-07-28T18:43:31.351Z,26.10
2022-07-28T18:45:58.768Z,26.10
2022-07-28T18:48:25.794Z,26.00
2022-07-28T18:50:52.724Z,25.90
2022-07-28T18:53:19.785Z,25.90
2022-07-28T18:55:46.625Z,25.80
2022-07-28T18:58:13.488Z,25.70
2022-07-28T19:00:40.342Z,25.70
2022-07-28T19:03:07.284Z,25.60
2022-07-28T19:05:36.916Z,25.60
2022-07-28T19:08:07.248Z,25.50
2022-07-28T19:10:34.092Z,25.50
2022-07-28T19:13:00.897Z,25.40
2022-07-28T19:15:27.731Z,25.40
2022-07-28T19:18:10.346Z,25.30
2022-07-28T19:20:40.329Z,25.30
2022-07-28T19:23:07.395Z,25.20
2022-07-28T19:25:36.103Z,25.10
2022-07-28T19:28:04.281Z,25.10
2022-07-28T19:30:32.151Z,25.00
2022-07-28T19:32:59.431Z,24.90
2022-07-28T19:35:26.382Z,24.90
2022-07-28T19:37:53.308Z,24.90
2022-07-28T19:40:20.257Z,24.80
2022-07-28T19:42:48.502Z,24.70
2022-07-28T19:45:15.501Z,23.70
2022-07-28T19:47:42.676Z,24.70
2022-07-28T19:50:10.095Z,24.60
2022-07-28T20:05:11.475Z,24.20
2022-07-28T20:19:29.148Z,24.00
2022-07-28T20:26:52.222Z,23.80
2022-07-28T20:33:37.806Z,23.40
2022-07-28T20:42:35.507Z,23.80
2022-07-28T20:52:28.205Z,22.90
2022-07-28T21:59:16.784Z,22.60
2022-07-28T22:30:37.740Z,23.20
2022-07-28T22:33:04.621Z,22.20
2022-07-28T22:35:31.443Z,22.10
2022-07-28T22:37:58.246Z,22.00
2022-07-28T22:40:25.253Z,22.00
2022-07-28T22:42:52.250Z,21.90
2022-07-28T22:45:48.716Z,21.90
2022-07-28T22:48:06.293Z,21.80
2022-07-28T22:50:34.348Z,21.80
2022-07-28T22:53:01.336Z,21.80
2022-07-28T22:55:29.377Z,21.70
2022-07-28T22:57:56.192Z,21.70
2022-07-28T23:00:23.509Z,21.70
2022-07-28T23:02:51.009Z,21.60
2022-07-28T23:05:17.903Z,21.60
2022-07-28T23:07:52.912Z,21.60
2022-07-28T23:10:23.959Z,21.60
2022-07-28T23:12:50.894Z,21.50
2022-07-28T23:15:17.761Z,21.50
2022-07-28T23:17:44.579Z,21.50
2022-07-28T23:20:11.727Z,21.40
2022-07-28T23:22:38.543Z,21.40
2022-07-28T23:25:06.692Z,21.40
2022-07-28T23:27:33.812Z,21.30
2022-07-28T23:30:00.755Z,21.30
2022-07-28T23:32:27.631Z,21.30
2022-07-28T23:34:54.400Z,21.20
2022-07-28T23:37:21.141Z,21.20
2022-07-28T23:39:48.321Z,21.20
2022-07-28T23:42:16.180Z,21.10
2022-07-28T23:44:43.173Z,21.10
2022-07-28T23:47:10.055Z,21.00
2022-07-28T23:49:36.912Z,21.00
2022-07-28T23:52:03.981Z,21.00
2022-07-28T23:54:30.784Z,21.00
2022-07-28T23:56:57.609Z,20.80
2022-07-28T23:59:24.981Z,20.80
